sensor_id;sensor_type;location;lat;lon;timestamp;pressure;altitude;pressure_sealevel;temperature;humidity
63946;BME280;50122;56.330;43.838;2022-10-22T00:00:10;101285.53;;;-2.60;91.72
63946;BME280;50122;56.330;43.838;2022-10-22T00:02:38;101280.31;;;-2.62;91.35
63946;BME280;50122;56.330;43.838;2022-10-22T00:05:06;101280.22;;;-2.67;91.64
63946;BME280;50122;56.330;43.838;2022-10-22T00:07:32;101266.22;;;-2.73;92.32
63946;BME280;50122;56.330;43.838;2022-10-22T00:09:59;101278.38;;;-2.71;91.71
63946;BME280;50122;56.330;43.838;2022-10-22T00:12:27;101272.38;;;-2.70;92.35
63946;BME280;50122;56.330;43.838;2022-10-22T00:14:53;101284.41;;;-2.70;92.08
63946;BME280;50122;56.330;43.838;2022-10-22T00:17:20;101284.22;;;-2.78;92.30
63946;BME280;50122;56.330;43.838;2022-10-22T00:19:47;101277.31;;;-2.77;92.04
63946;BME280;50122;56.330;43.838;2022-10-22T00:22:14;101270.34;;;-2.82;91.56
63946;BME280;50122;56.330;43.838;2022-10-22T00:24:41;101284.34;;;-2.73;92.47
63946;BME280;50122;56.330;43.838;2022-10-22T00:27:10;101281.72;;;-2.75;91.86
63946;BME280;50122;56.330;43.838;2022-10-22T00:29:37;101275.56;;;-2.80;92.26
63946;BME280;50122;56.330;43.838;2022-10-22T00:32:04;101284.94;;;-2.84;91.66
63946;BME280;50122;56.330;43.838;2022-10-22T00:34:31;101282.25;;;-2.87;91.53
63946;BME280;50122;56.330;43.838;2022-10-22T00:36:59;101254.13;;;-3.06;92.09
63946;BME280;50122;56.330;43.838;2022-10-22T00:39:27;101281.34;;;-2.89;91.83
63946;BME280;50122;56.330;43.838;2022-10-22T00:41:55;101276.97;;;-2.91;91.91
63946;BME280;50122;56.330;43.838;2022-10-22T00:47:31;101292.53;;;-2.90;92.47
63946;BME280;50122;56.330;43.838;2022-10-22T00:50:00;101276.06;;;-2.92;91.92
63946;BME280;50122;56.330;43.838;2022-10-22T00:52:32;101286.38;;;-2.93;91.67
63946;BME280;50122;56.330;43.838;2022-10-22T00:54:59;101282.03;;;-2.96;92.15
63946;BME280;50122;56.330;43.838;2022-10-22T00:57:27;101284.47;;;-3.01;92.10
63946;BME280;50122;56.330;43.838;2022-10-22T00:59:55;101272.16;;;-3.09;91.45
63946;BME280;50122;56.330;43.838;2022-10-22T01:02:23;101289.44;;;-3.08;92.10
63946;BME280;50122;56.330;43.838;2022-10-22T01:04:50;101299.00;;;-3.06;92.16
63946;BME280;50122;56.330;43.838;2022-10-22T01:07:19;101300.72;;;-3.05;91.94
63946;BME280;50122;56.330;43.838;2022-10-22T01:09:56;101303.22;;;-3.08;91.82
63946;BME280;50122;56.330;43.838;2022-10-22T01:12:34;101292.63;;;-3.17;91.36
63946;BME280;50122;56.330;43.838;2022-10-22T01:25:52;101309.81;;;-3.19;92.10
63946;BME280;50122;56.330;43.838;2022-10-22T01:31:19;101306.78;;;-3.35;91.61
63946;BME280;50122;56.330;43.838;2022-10-22T01:33:47;101319.91;;;-3.27;91.90
63946;BME280;50122;56.330;43.838;2022-10-22T01:36:17;101318.06;;;-3.31;91.81
63946;BME280;50122;56.330;43.838;2022-10-22T01:38:45;101310.94;;;-3.40;92.11
63946;BME280;50122;56.330;43.838;2022-10-22T01:41:13;101288.97;;;-3.54;91.58
63946;BME280;50122;56.330;43.838;2022-10-22T01:43:40;101306.28;;;-3.52;91.81
63946;BME280;50122;56.330;43.838;2022-10-22T01:46:09;101295.13;;;-3.51;92.26
63946;BME280;50122;56.330;43.838;2022-10-22T01:48:44;101328.47;;;-3.29;92.65
63946;BME280;50122;56.330;43.838;2022-10-22T01:51:33;101313.56;;;-3.38;91.80
63946;BME280;50122;56.330;43.838;2022-10-22T01:57:18;101328.31;;;-3.34;92.39
63946;BME280;50122;56.330;43.838;2022-10-22T02:00:11;101321.31;;;-3.38;91.86
63946;BME280;50122;56.330;43.838;2022-10-22T02:07:43;101298.75;;;-3.73;91.75
63946;BME280;50122;56.330;43.838;2022-10-22T02:10:13;101344.25;;;-3.49;91.26
63946;BME280;50122;56.330;43.838;2022-10-22T02:12:45;101312.81;;;-3.63;91.81
63946;BME280;50122;56.330;43.838;2022-10-22T02:15:16;101331.97;;;-3.56;92.17
63946;BME280;50122;56.330;43.838;2022-10-22T02:17:45;101342.47;;;-3.52;92.07
63946;BME280;50122;56.330;43.838;2022-10-22T02:20:17;101342.50;;;-3.50;92.10
63946;BME280;50122;56.330;43.838;2022-10-22T02:22:45;101343.44;;;-3.48;91.68
63946;BME280;50122;56.330;43.838;2022-10-22T02:25:12;101329.81;;;-3.71;91.70
63946;BME280;50122;56.330;43.838;2022-10-22T02:27:51;101353.66;;;-3.51;92.10
63946;BME280;50122;56.330;43.838;2022-10-22T02:30:21;101352.78;;;-3.52;91.48
63946;BME280;50122;56.330;43.838;2022-10-22T02:35:19;101350.13;;;-3.55;91.94
63946;BME280;50122;56.330;43.838;2022-10-22T02:37:48;101358.75;;;-3.54;91.66
63946;BME280;50122;56.330;43.838;2022-10-22T02:40:16;101363.91;;;-3.54;91.56
63946;BME280;50122;56.330;43.838;2022-10-22T02:42:46;101342.91;;;-3.65;91.81
63946;BME280;50122;56.330;43.838;2022-10-22T02:45:19;101356.06;;;-3.57;91.23
63946;BME280;50122;56.330;43.838;2022-10-22T02:47:46;101362.06;;;-3.58;91.87
63946;BME280;50122;56.330;43.838;2022-10-22T02:50:12;101355.06;;;-3.62;91.75
63946;BME280;50122;56.330;43.838;2022-10-22T02:52:39;101367.13;;;-3.61;91.44
63946;BME280;50122;56.330;43.838;2022-10-22T02:55:06;101340.91;;;-3.74;91.42
63946;BME280;50122;56.330;43.838;2022-10-22T02:57:33;101350.41;;;-3.73;91.83
63946;BME280;50122;56.330;43.838;2022-10-22T03:00:04;101345.19;;;-3.74;91.76
63946;BME280;50122;56.330;43.838;2022-10-22T03:02:30;101356.66;;;-3.66;91.47
63946;BME280;50122;56.330;43.838;2022-10-22T03:04:57;101353.97;;;-3.69;91.59
63946;BME280;50122;56.330;43.838;2022-10-22T03:07:24;101363.31;;;-3.73;91.48
63946;BME280;50122;56.330;43.838;2022-10-22T03:09:51;101368.56;;;-3.71;91.74
63946;BME280;50122;56.330;43.838;2022-10-22T03:12:18;101362.38;;;-3.76;91.85
63946;BME280;50122;56.330;43.838;2022-10-22T03:14:45;101365.75;;;-3.77;91.37
63946;BME280;50122;56.330;43.838;2022-10-22T03:17:12;101362.22;;;-3.81;91.30
63946;BME280;50122;56.330;43.838;2022-10-22T03:19:39;101355.16;;;-3.87;91.60
63946;BME280;50122;56.330;43.838;2022-10-22T03:22:10;101357.72;;;-3.87;92.07
63946;BME280;50122;56.330;43.838;2022-10-22T03:24:41;101370.03;;;-3.79;92.21
63946;BME280;50122;56.330;43.838;2022-10-22T03:27:11;101365.63;;;-3.82;91.55
63946;BME280;50122;56.330;43.838;2022-10-22T03:29:39;101370.69;;;-3.85;91.72
63946;BME280;50122;56.330;43.838;2022-10-22T03:32:06;101365.63;;;-3.82;91.18
63946;BME280;50122;56.330;43.838;2022-10-22T03:34:33;101368.22;;;-3.82;91.50
63946;BME280;50122;56.330;43.838;2022-10-22T03:37:01;101355.78;;;-3.94;91.24
63946;BME280;50122;56.330;43.838;2022-10-22T03:39:29;101374.09;;;-3.86;91.25
63946;BME280;50122;56.330;43.838;2022-10-22T03:41:57;101378.41;;;-3.87;91.36
63946;BME280;50122;56.330;43.838;2022-10-22T03:44:24;101376.69;;;-3.86;91.32
63946;BME280;50122;56.330;43.838;2022-10-22T03:46:51;101379.22;;;-3.88;91.54
63946;BME280;50122;56.330;43.838;2022-10-22T03:49:22;101380.94;;;-3.88;91.65
63946;BME280;50122;56.330;43.838;2022-10-22T03:51:49;101379.97;;;-3.90;91.52
63946;BME280;50122;56.330;43.838;2022-10-22T03:54:16;101388.69;;;-3.88;91.41
63946;BME280;50122;56.330;43.838;2022-10-22T03:56:42;101380.84;;;-3.91;91.37
63946;BME280;50122;56.330;43.838;2022-10-22T03:59:09;101380.09;;;-3.87;91.25
63946;BME280;50122;56.330;43.838;2022-10-22T04:01:35;101380.09;;;-3.87;91.56
63946;BME280;50122;56.330;43.838;2022-10-22T04:04:02;101385.25;;;-3.87;90.88
63946;BME280;50122;56.330;43.838;2022-10-22T04:06:29;101378.25;;;-3.91;91.23
63946;BME280;50122;56.330;43.838;2022-10-22T04:08:56;101380.78;;;-3.93;91.76
63946;BME280;50122;56.330;43.838;2022-10-22T04:11:23;101385.09;;;-3.92;91.47
63946;BME280;50122;56.330;43.838;2022-10-22T04:13:49;101387.72;;;-3.90;91.41
63946;BME280;50122;56.330;43.838;2022-10-22T04:16:18;101402.56;;;-3.85;91.43
63946;BME280;50122;56.330;43.838;2022-10-22T04:18:48;101388.63;;;-3.90;91.42
63946;BME280;50122;56.330;43.838;2022-10-22T04:21:17;101391.13;;;-3.93;91.07
63946;BME280;50122;56.330;43.838;2022-10-22T04:23:50;101412.16;;;-3.80;91.71
63946;BME280;50122;56.330;43.838;2022-10-22T04:26:18;101411.34;;;-3.79;91.51
63946;BME280;50122;56.330;43.838;2022-10-22T04:28:46;101408.09;;;-3.74;91.46
63946;BME280;50122;56.330;43.838;2022-10-22T04:31:18;101409.09;;;-3.69;91.42
63946;BME280;50122;56.330;43.838;2022-10-22T04:33:53;101394.44;;;-3.70;91.72
63946;BME280;50122;56.330;43.838;2022-10-22T04:36:21;101402.44;;;-3.62;91.91
63946;BME280;50122;56.330;43.838;2022-10-22T04:38:55;101405.88;;;-3.61;91.92
63946;BME280;50122;56.330;43.838;2022-10-22T04:41:26;101401.84;;;-3.53;92.05
63946;BME280;50122;56.330;43.838;2022-10-22T04:43:54;101394.09;;;-3.53;91.88
63946;BME280;50122;56.330;43.838;2022-10-22T04:46:22;101395.31;;;-3.42;91.77
63946;BME280;50122;56.330;43.838;2022-10-22T04:48:49;101395.53;;;-3.34;92.10
63946;BME280;50122;56.330;43.838;2022-10-22T04:51:18;101387.75;;;-3.36;91.80
63946;BME280;50122;56.330;43.838;2022-10-22T04:53:46;101397.47;;;-3.27;91.48
63946;BME280;50122;56.330;43.838;2022-10-22T04:58:55;101409.06;;;-3.14;91.33
63946;BME280;50122;56.330;43.838;2022-10-22T05:01:27;101410.16;;;-3.07;91.84
63946;BME280;50122;56.330;43.838;2022-10-22T05:03:56;101424.22;;;-2.98;91.53
63946;BME280;50122;56.330;43.838;2022-10-22T05:06:24;101423.53;;;-2.92;91.48
63946;BME280;50122;56.330;43.838;2022-10-22T05:08:56;101425.38;;;-2.88;91.32
63946;BME280;50122;56.330;43.838;2022-10-22T05:11:26;101424.53;;;-2.87;91.20
63946;BME280;50122;56.330;43.838;2022-10-22T05:13:59;101420.31;;;-2.83;91.62
63946;BME280;50122;56.330;43.838;2022-10-22T05:16:27;101434.41;;;-2.73;91.09
